Time;durP1;ratioP1;P1;durP2;ratioP2;P2;SDS_P1;SDS_P2;PMS_P1;PMS_P2;Temp;Humidity;BMP_temperature;BMP_pressure;BME280_temperature;BME280_humidity;BME280_pressure;Samples;Min_cycle;Max_cycle;Signal;HPM_P1;HPM_P2
2021/04/09 00:01:19;;;;;;;11.95;6.45;;;-0.10;99.90;;;;;;4804725;29;20510;-80
2021/04/09 00:03:50;;;;;;;8.38;5.78;;;-0.20;99.90;;;;;;4806038;29;20506;-80
2021/04/09 00:06:21;;;;;;;10.50;7.93;;;-0.20;99.90;;;;;;4806946;29;20564;-80
2021/04/09 00:08:53;;;;;;;10.77;7.53;;;-0.20;99.90;;;;;;4807901;29;20042;-80
2021/04/09 00:11:24;;;;;;;11.13;7.13;;;-0.20;99.90;;;;;;4808734;29;20057;-80
2021/04/09 00:13:51;;;;;;;10.48;7.18;;;-0.30;99.90;;;;;;4827344;29;20410;-80
2021/04/09 00:16:22;;;;;;;11.63;7.00;;;-0.30;99.90;;;;;;4827370;29;20042;-80
2021/04/09 00:18:53;;;;;;;12.68;6.57;;;-0.30;99.90;;;;;;4796402;29;20124;-81
2021/04/09 00:21:25;;;;;;;11.00;6.35;;;-0.40;99.90;;;;;;4809805;29;20516;-80
2021/04/09 00:23:51;;;;;;;12.32;7.55;;;-0.40;99.90;;;;;;4793015;29;20484;-80
2021/04/09 00:26:22;;;;;;;11.52;7.03;;;-0.40;99.90;;;;;;4808211;29;20141;-80
2021/04/09 00:28:54;;;;;;;10.82;6.85;;;-0.40;99.90;;;;;;4807667;29;20328;-80
2021/04/09 00:31:25;;;;;;;10.50;6.20;;;-0.50;99.90;;;;;;4807999;29;20050;-80
2021/04/09 00:33:57;;;;;;;9.82;6.25;;;-0.50;99.90;;;;;;4807857;29;20050;-80
2021/04/09 00:36:28;;;;;;;10.60;6.35;;;-0.50;99.90;;;;;;4807995;29;20068;-80
2021/04/09 00:38:59;;;;;;;10.13;6.57;;;-0.50;99.90;;;;;;4807618;29;20058;-80
2021/04/09 00:41:31;;;;;;;10.23;6.72;;;-0.50;99.90;;;;;;4808138;29;20149;-80
2021/04/09 00:44:04;;;;;;;8.40;6.10;;;-0.60;99.90;;;;;;4807526;29;20050;-80
2021/04/09 00:46:30;;;;;;;10.77;6.40;;;-0.60;99.90;;;;;;4807885;29;20093;-80
2021/04/09 00:49:02;;;;;;;10.30;6.03;;;-0.60;99.90;;;;;;4807259;29;20050;-80
2021/04/09 00:51:35;;;;;;;10.13;6.60;;;-0.60;99.90;;;;;;4807647;29;20050;-80
2021/04/09 00:54:07;;;;;;;9.13;6.18;;;-0.60;99.90;;;;;;4793182;29;20046;-80
2021/04/09 00:56:35;;;;;;;10.68;6.60;;;-0.60;99.90;;;;;;4807524;29;20062;-81
2021/04/09 00:59:06;;;;;;;11.13;6.15;;;-0.70;99.90;;;;;;4806793;29;20153;-80
2021/04/09 01:01:37;;;;;;;9.85;7.00;;;-0.80;99.90;;;;;;4807697;29;20047;-80
2021/04/09 01:04:09;;;;;;;9.63;7.10;;;-0.80;99.90;;;;;;4806705;29;20042;-80
2021/04/09 01:06:40;;;;;;;9.15;6.40;;;-0.80;99.90;;;;;;4792479;29;20065;-80
2021/04/09 01:09:12;;;;;;;11.55;6.30;;;-0.90;99.90;;;;;;4806457;29;20111;-80
2021/04/09 01:11:38;;;;;;;13.13;8.25;;;-0.90;99.90;;;;;;4791698;29;20140;-80
2021/04/09 01:14:09;;;;;;;9.07;5.45;;;-0.90;99.90;;;;;;4792331;29;20247;-80
2021/04/09 01:16:49;;;;;;;8.57;5.93;;;-0.90;99.90;;;;;;4791258;29;20411;-80
2021/04/09 01:19:39;;;;;;;;;;;-0.90;99.90;;;;;;4806725;29;20497;-80
2021/04/09 01:22:11;;;;;;;10.38;6.03;;;-0.90;99.90;;;;;;4803532;29;20320;-80
2021/04/09 01:25:04;;;;;;;13.00;6.13;;;-1.00;99.90;;;;;;4806969;29;20199;-80
2021/04/09 01:27:38;;;;;;;7.78;5.30;;;-1.00;99.90;;;;;;4792444;29;20050;-80
2021/04/09 01:30:30;;;;;;;7.68;5.07;;;-1.00;99.90;;;;;;4791453;29;20057;-80
2021/04/09 01:33:06;;;;;;;9.23;5.97;;;-1.00;99.90;;;;;;4806771;29;20377;-80
2021/04/09 01:35:41;;;;;;;9.43;5.93;;;-1.00;99.90;;;;;;4807696;29;20046;-80
2021/04/09 01:38:16;;;;;;;9.50;6.03;;;-1.00;99.90;;;;;;4791786;29;20082;-80
2021/04/09 01:40:49;;;;;;;12.57;4.78;;;-1.00;99.90;;;;;;4792275;29;20058;-80
2021/04/09 01:43:22;;;;;;;6.47;4.38;;;-1.00;99.90;;;;;;4806722;29;20586;-80
2021/04/09 01:45:50;;;;;;;7.78;4.40;;;-1.00;99.90;;;;;;4791496;29;20149;-80
2021/04/09 01:48:20;;;;;;;5.43;4.00;;;-1.10;99.90;;;;;;4791383;29;20133;-80
2021/04/09 01:50:52;;;;;;;7.63;5.35;;;-1.10;99.90;;;;;;4792060;29;20521;-79
2021/04/09 01:53:28;;;;;;;5.65;4.22;;;-1.10;99.90;;;;;;4806468;29;20043;-81
2021/04/09 01:55:59;;;;;;;6.18;3.70;;;-1.20;99.90;;;;;;4807144;29;20129;-80
2021/04/09 01:58:28;;;;;;;6.78;4.57;;;-1.20;99.90;;;;;;4791049;29;20521;-80
2021/04/09 02:00:57;;;;;;;6.50;3.78;;;-1.20;99.90;;;;;;4806063;29;20107;-80
2021/04/09 02:03:25;;;;;;;6.72;3.70;;;-1.10;99.90;;;;;;4791000;29;20046;-80
2021/04/09 02:05:57;;;;;;;5.93;3.92;;;-1.10;99.90;;;;;;4806114;29;20479;-80
2021/04/09 02:08:31;;;;;;;6.75;4.40;;;-1.10;99.90;;;;;;4805974;29;20115;-80
2021/04/09 02:11:04;;;;;;;6.65;3.92;;;-1.20;99.90;;;;;;4805870;29;20271;-80
2021/04/09 02:13:36;;;;;;;4.60;3.42;;;-1.10;99.90;;;;;;4806069;29;20075;-80
2021/04/09 02:16:08;;;;;;;5.78;3.80;;;-1.20;99.90;;;;;;4791976;29;20046;-81
2021/04/09 02:18:39;;;;;;;4.85;3.63;;;-1.20;99.90;;;;;;4805597;29;20054;-80
2021/04/09 02:21:11;;;;;;;5.90;3.90;;;-1.20;99.90;;;;;;4791701;29;20152;-80
2021/04/09 02:23:42;;;;;;;7.55;4.32;;;-1.20;99.90;;;;;;4806867;29;20123;-80
2021/04/09 02:26:14;;;;;;;5.45;3.83;;;-1.20;99.90;;;;;;4805831;29;20054;-80
2021/04/09 02:28:40;;;;;;;6.00;3.85;;;-1.20;99.90;;;;;;4805421;29;20054;-80
2021/04/09 02:31:13;;;;;;;5.15;3.70;;;-1.20;99.90;;;;;;4791380;29;20047;-80
2021/04/09 02:33:44;;;;;;;6.82;4.03;;;-1.30;99.90;;;;;;4791372;29;20050;-80
2021/04/09 02:36:27;;;;;;;7.30;4.10;;;-1.30;99.90;;;;;;4822255;29;20050;-80
2021/04/09 02:39:07;;;;;;;6.95;4.20;;;-1.30;99.90;;;;;;4790974;29;20528;-80
2021/04/09 02:41:49;;;;;;;5.80;4.30;;;-1.40;99.90;;;;;;4791453;29;20060;-80
2021/04/09 02:44:21;;;;;;;5.07;3.80;;;-1.40;99.90;;;;;;4805666;29;20069;-80
2021/04/09 02:46:59;;;;;;;7.05;3.72;;;-1.40;99.90;;;;;;4805545;29;20575;-80
2021/04/09 02:49:50;;;;;;;5.70;3.83;;;-1.40;99.90;;;;;;4805193;29;20079;-80
2021/04/09 02:52:25;;;;;;;6.63;3.50;;;-1.40;99.90;;;;;;4786434;29;20599;-80
2021/04/09 02:54:59;;;;;;;5.95;3.67;;;-1.50;99.90;;;;;;4805351;29;20146;-80
2021/04/09 02:57:31;;;;;;;6.10;3.50;;;-1.50;99.90;;;;;;4791335;29;20056;-80
2021/04/09 03:00:05;;;;;;;6.53;3.60;;;-1.50;99.90;;;;;;4805183;29;20042;-80
2021/04/09 03:02:32;;;;;;;6.40;3.60;;;-1.50;99.90;;;;;;4790327;29;20149;-80
2021/04/09 03:05:06;;;;;;;5.65;3.63;;;-1.50;99.90;;;;;;4791027;29;20426;-80
2021/04/09 03:07:36;;;;;;;8.68;3.90;;;-1.50;99.90;;;;;;4790397;29;20162;-80
2021/04/09 03:10:05;;;;;;;4.95;3.45;;;-1.60;99.90;;;;;;4790104;29;20113;-80
2021/04/09 03:12:37;;;;;;;5.18;3.72;;;-1.60;99.90;;;;;;4791120;29;20066;-80
2021/04/09 03:15:23;;;;;;;5.38;3.33;;;-1.60;99.90;;;;;;4791595;29;20137;-80
2021/04/09 03:17:58;;;;;;;6.20;3.72;;;-1.60;99.90;;;;;;4804703;29;20103;-80
2021/04/09 03:20:31;;;;;;;6.53;3.78;;;-1.60;99.90;;;;;;4791062;29;20120;-80
2021/04/09 03:23:04;;;;;;;7.07;3.88;;;-1.60;99.90;;;;;;4805339;29;20119;-80
2021/04/09 03:25:33;;;;;;;4.82;3.60;;;-1.60;99.90;;;;;;4805251;29;20062;-80
2021/04/09 03:28:05;;;;;;;8.30;4.20;;;-1.60;99.90;;;;;;4790644;29;20061;-80
2021/04/09 03:30:32;;;;;;;5.30;3.55;;;-1.60;99.90;;;;;;4804325;29;20141;-81
2021/04/09 03:33:04;;;;;;;6.30;3.80;;;-1.70;99.90;;;;;;4805170;29;20510;-80
2021/04/09 03:35:31;;;;;;;5.75;4.22;;;-1.70;99.90;;;;;;4790419;29;20141;-80
2021/04/09 03:38:02;;;;;;;5.72;4.50;;;-1.70;99.90;;;;;;4804704;29;20054;-80
2021/04/09 03:40:33;;;;;;;6.35;4.47;;;-1.70;99.90;;;;;;4806188;29;20421;-81
2021/04/09 03:42:59;;;;;;;6.50;4.28;;;-1.80;99.90;;;;;;4793448;29;20426;-80
2021/04/09 03:45:26;;;;;;;6.15;4.57;;;-1.90;99.90;;;;;;4793558;29;20479;-80
2021/04/09 03:47:57;;;;;;;8.90;4.78;;;-1.90;99.90;;;;;;4808902;29;20471;-80
2021/04/09 03:50:28;;;;;;;5.75;4.28;;;-2.00;99.90;;;;;;4808424;29;20418;-80
2021/04/09 03:52:55;;;;;;;6.18;4.05;;;-2.00;99.90;;;;;;4808416;29;20050;-80
2021/04/09 03:55:21;;;;;;;5.40;4.18;;;-2.00;99.90;;;;;;4808650;29;20046;-80
2021/04/09 03:57:48;;;;;;;4.55;3.90;;;-2.00;99.90;;;;;;4793157;29;20161;-81
2021/04/09 04:00:20;;;;;;;6.22;3.88;;;-2.00;99.90;;;;;;4808335;29;20518;-79
2021/04/09 04:02:51;;;;;;;6.50;3.95;;;-2.00;99.90;;;;;;4793584;29;20528;-79
2021/04/09 04:05:22;;;;;;;4.22;2.90;;;-2.00;99.90;;;;;;4808396;29;20081;-78
2021/04/09 04:07:54;;;;;;;5.88;3.63;;;-2.00;99.90;;;;;;4794455;29;20047;-80
2021/04/09 04:10:25;;;;;;;5.57;4.15;;;-2.00;99.90;;;;;;4793650;29;20051;-80
2021/04/09 04:12:57;;;;;;;4.88;3.20;;;-2.00;99.90;;;;;;4807858;29;20512;-80
2021/04/09 04:15:28;;;;;;;11.50;4.65;;;-2.00;99.90;;;;;;4793391;29;20429;-80
2021/04/09 04:17:54;;;;;;;10.13;6.63;;;-2.00;99.90;;;;;;4800376;29;20086;-80
2021/04/09 04:20:25;;;;;;;21.17;18.02;;;-2.00;99.90;;;;;;4816077;29;20066;-80
2021/04/09 04:22:52;;;;;;;20.67;16.58;;;-1.90;99.90;;;;;;4800978;29;20407;-80
2021/04/09 04:25:18;;;;;;;17.65;14.25;;;-1.90;99.90;;;;;;4795905;29;20514;-80
2021/04/09 04:27:44;;;;;;;14.05;10.30;;;-1.90;99.90;;;;;;4807532;29;20132;-80
2021/04/09 04:30:16;;;;;;;13.55;9.63;;;-1.90;99.90;;;;;;4793529;29;20391;-80
2021/04/09 04:32:47;;;;;;;10.48;7.63;;;-1.90;99.90;;;;;;4807507;29;20038;-80
2021/04/09 04:35:14;;;;;;;14.30;7.88;;;-1.90;99.90;;;;;;4807659;29;20074;-80
2021/04/09 04:37:40;;;;;;;11.18;6.95;;;-1.90;99.90;;;;;;4792388;29;20527;-80
2021/04/09 04:40:07;;;;;;;7.22;6.18;;;-1.90;99.90;;;;;;4792315;29;20065;-80
2021/04/09 04:42:38;;;;;;;8.98;5.78;;;-1.90;99.90;;;;;;4793130;29;20051;-80
2021/04/09 04:45:05;;;;;;;8.32;5.65;;;-2.00;99.90;;;;;;4792361;29;20389;-80
2021/04/09 04:47:32;;;;;;;15.20;6.70;;;-2.00;99.90;;;;;;4807362;29;20057;-80
2021/04/09 04:50:04;;;;;;;17.10;7.60;;;-2.00;99.90;;;;;;4792537;29;20140;-80
2021/04/09 04:52:35;;;;;;;13.70;8.05;;;-2.00;99.90;;;;;;4791510;29;20503;-80
2021/04/09 04:55:03;;;;;;;13.48;8.48;;;-2.00;99.90;;;;;;4792244;29;20056;-80
2021/04/09 04:57:29;;;;;;;13.48;7.75;;;-2.00;99.90;;;;;;4792129;29;20149;-80
2021/04/09 04:59:55;;;;;;;14.65;7.75;;;-2.00;99.90;;;;;;4791622;29;20054;-80
2021/04/09 05:02:27;;;;;;;11.02;5.43;;;-2.00;99.90;;;;;;4792635;29;20047;-80
2021/04/09 05:04:53;;;;;;;8.85;5.93;;;-2.00;99.90;;;;;;4792055;29;20061;-80
2021/04/09 05:07:24;;;;;;;10.13;6.05;;;-2.00;99.90;;;;;;4807261;29;20046;-80
2021/04/09 05:09:55;;;;;;;8.80;6.50;;;-2.00;99.90;;;;;;4806795;29;20213;-80
2021/04/09 05:12:27;;;;;;;9.60;6.03;;;-2.00;99.90;;;;;;4792677;29;20050;-80
2021/04/09 05:14:58;;;;;;;10.75;5.70;;;-2.00;99.90;;;;;;4807409;29;20053;-79
2021/04/09 05:17:29;;;;;;;10.43;6.05;;;-2.00;99.90;;;;;;4808126;29;20050;-80
2021/04/09 05:19:56;;;;;;;11.30;6.15;;;-2.00;99.90;;;;;;4791559;29;20141;-80
2021/04/09 05:22:27;;;;;;;8.90;5.75;;;-2.00;99.90;;;;;;4792266;29;20414;-80
2021/04/09 05:24:53;;;;;;;10.15;5.35;;;-2.00;99.90;;;;;;4791975;29;20506;-80
2021/04/09 05:27:19;;;;;;;8.70;5.85;;;-2.00;99.90;;;;;;4791630;29;20146;-80
2021/04/09 05:29:51;;;;;;;10.13;5.20;;;-2.00;99.90;;;;;;4792591;29;20053;-80
2021/04/09 05:32:23;;;;;;;10.77;5.57;;;-1.90;99.90;;;;;;4806728;29;20042;-80
2021/04/09 05:34:54;;;;;;;10.82;5.10;;;-1.90;99.90;;;;;;4776129;29;20054;-79
2021/04/09 05:37:26;;;;;;;7.93;5.15;;;-1.90;99.90;;;;;;4788501;29;20589;-79
2021/04/09 05:39:57;;;;;;;7.55;5.78;;;-1.80;99.90;;;;;;4773232;29;20067;-79
2021/04/09 05:42:28;;;;;;;6.60;4.97;;;-1.80;99.90;;;;;;4788702;29;20057;-79
2021/04/09 05:44:59;;;;;;;9.10;4.95;;;-1.70;99.90;;;;;;4804048;29;20057;-80
2021/04/09 05:47:31;;;;;;;7.10;4.78;;;-1.70;99.90;;;;;;4785779;29;20132;-79
2021/04/09 05:50:03;;;;;;;9.48;4.85;;;-1.70;99.90;;;;;;4802218;29;20070;-79
2021/04/09 05:52:34;;;;;;;10.20;5.63;;;-1.60;99.90;;;;;;4774847;29;20051;-79
2021/04/09 05:55:06;;;;;;;11.95;6.88;;;-1.60;99.90;;;;;;4785554;29;20446;-80
2021/04/09 05:57:37;;;;;;;13.95;7.22;;;-1.50;99.90;;;;;;4784938;29;20138;-80
2021/04/09 06:00:12;;;;;;;14.18;8.35;;;-1.40;99.90;;;;;;4770124;29;20432;-79
2021/04/09 06:02:38;;;;;;;16.63;9.05;;;-1.40;99.90;;;;;;4769990;29;20468;-80
2021/04/09 06:05:10;;;;;;;14.35;9.10;;;-1.30;99.90;;;;;;4771239;29;20158;-80
2021/04/09 06:07:41;;;;;;;13.27;7.90;;;-1.20;99.90;;;;;;4787246;29;20140;-80
2021/04/09 06:10:08;;;;;;;10.52;6.50;;;-1.20;99.90;;;;;;4786595;29;20079;-81
2021/04/09 06:12:38;;;;;;;11.55;6.50;;;-1.10;99.90;;;;;;4772187;29;20115;-80
2021/04/09 06:15:11;;;;;;;13.27;5.95;;;-1.00;99.90;;;;;;4786973;29;20094;-80
2021/04/09 06:17:38;;;;;;;12.20;6.65;;;-1.00;99.90;;;;;;4784109;29;20477;-79
2021/04/09 06:20:06;;;;;;;11.82;6.07;;;-0.90;99.90;;;;;;4786188;29;20058;-80
2021/04/09 06:22:32;;;;;;;11.35;6.40;;;-0.90;99.90;;;;;;4801954;29;20092;-80
2021/04/09 06:25:05;;;;;;;10.40;6.28;;;-0.80;99.90;;;;;;4789074;29;20108;-80
2021/04/09 06:27:37;;;;;;;10.55;6.43;;;-0.80;99.90;;;;;;4783483;29;20057;-80
2021/04/09 06:30:09;;;;;;;9.40;6.90;;;-0.70;99.90;;;;;;4770926;29;20126;-80
2021/04/09 06:32:40;;;;;;;10.00;6.20;;;-0.60;99.90;;;;;;4773584;29;20054;-80
2021/04/09 06:35:13;;;;;;;15.52;6.60;;;-0.60;99.90;;;;;;4784694;29;20039;-79
2021/04/09 06:37:41;;;;;;;8.77;5.97;;;-0.60;99.90;;;;;;4771033;29;20059;-80
2021/04/09 06:40:16;;;;;;;10.93;6.50;;;-0.50;99.90;;;;;;4780161;30;20576;-80
2021/04/09 06:42:55;;;;;;;12.93;7.45;;;-0.40;99.90;;;;;;4769762;29;20137;-79
2021/04/09 06:45:23;;;;;;;14.48;8.20;;;-0.40;99.90;;;;;;4800149;29;20054;-80
2021/04/09 06:47:56;;;;;;;13.40;8.77;;;-0.30;99.90;;;;;;4777194;29;20590;-80
2021/04/09 06:50:25;;;;;;;14.23;7.72;;;-0.20;99.90;;;;;;4804932;29;20395;-80
2021/04/09 06:52:56;;;;;;;13.38;8.00;;;-0.10;99.90;;;;;;4778368;29;20126;-80
2021/04/09 06:55:23;;;;;;;18.88;8.18;;;0.00;99.90;;;;;;4791268;29;20054;-80
2021/04/09 06:57:57;;;;;;;9.88;6.75;;;0.00;99.90;;;;;;4808851;29;20528;-80
2021/04/09 07:00:31;;;;;;;10.90;6.70;;;0.20;99.90;;;;;;4813525;29;20057;-80
2021/04/09 07:03:03;;;;;;;10.27;7.07;;;0.30;99.90;;;;;;4792784;29;20078;-79
2021/04/09 07:05:30;;;;;;;11.30;7.05;;;0.30;99.90;;;;;;4773694;29;20058;-80
2021/04/09 07:08:01;;;;;;;11.07;7.20;;;0.40;99.90;;;;;;4774057;29;20043;-80
2021/04/09 07:10:32;;;;;;;9.63;6.53;;;0.50;99.90;;;;;;4789670;29;20099;-80
2021/04/09 07:13:11;;;;;;;8.93;6.40;;;0.60;99.90;;;;;;4805178;29;20053;-80
2021/04/09 07:15:46;;;;;;;13.23;8.68;;;0.80;99.90;;;;;;4805351;29;20042;-80
2021/04/09 07:18:18;;;;;;;11.07;8.13;;;0.90;99.90;;;;;;4793211;29;20470;-80
2021/04/09 07:20:49;;;;;;;11.73;7.63;;;1.00;99.90;;;;;;4777236;29;20431;-80
2021/04/09 07:23:17;;;;;;;14.25;8.40;;;1.10;99.90;;;;;;4785458;29;20054;-79
2021/04/09 07:25:45;;;;;;;10.70;7.82;;;1.30;99.90;;;;;;4790267;29;20133;-80
2021/04/09 07:28:20;;;;;;;11.32;7.07;;;1.40;99.90;;;;;;4789957;29;20117;-80
2021/04/09 07:30:54;;;;;;;10.57;6.72;;;1.50;99.90;;;;;;4801146;29;20143;-80
2021/04/09 07:33:27;;;;;;;10.20;7.07;;;1.60;99.90;;;;;;4797827;29;20094;-80
2021/04/09 07:36:01;;;;;;;8.30;4.88;;;1.70;99.90;;;;;;4799332;29;20117;-81
2021/04/09 07:38:28;;;;;;;10.02;6.18;;;1.90;99.90;;;;;;4793998;29;20070;-81
2021/04/09 07:41:04;;;;;;;12.25;5.65;;;2.00;99.90;;;;;;4790884;29;20082;-80
2021/04/09 07:43:37;;;;;;;13.80;7.88;;;2.10;99.90;;;;;;4776585;29;20046;-80
2021/04/09 07:46:28;;;;;;;12.15;7.28;;;2.20;99.90;;;;;;4808557;29;20066;-80
2021/04/09 07:49:03;;;;;;;11.73;7.60;;;2.30;99.90;;;;;;4795173;29;20122;-80
2021/04/09 07:51:34;;;;;;;13.90;7.95;;;2.50;99.90;;;;;;4808526;29;20051;-80
2021/04/09 07:54:12;;;;;;;8.98;6.55;;;2.60;99.90;;;;;;4795385;29;20042;-80
2021/04/09 07:56:48;;;;;;;9.98;5.90;;;2.80;99.90;;;;;;4810620;29;20514;-80
2021/04/09 07:59:41;;;;;;;11.48;6.75;;;3.00;99.90;;;;;;4789524;30;20048;-80
2021/04/09 08:02:13;;;;;;;9.13;6.75;;;3.20;99.90;;;;;;4757860;30;20051;-80
2021/04/09 08:04:45;;;;;;;15.10;10.35;;;3.40;99.90;;;;;;4788147;30;20580;-79
2021/04/09 08:07:33;;;;;;;12.68;8.05;;;3.50;99.90;;;;;;4760748;30;20507;-79
2021/04/09 08:09:59;;;;;;;13.83;8.27;;;3.70;99.90;;;;;;4790931;30;20047;-79
2021/04/09 08:12:33;;;;;;;12.13;7.75;;;3.90;99.90;;;;;;4866262;24;20149;-79
2021/04/09 08:15:19;;;;;;;13.20;8.30;;;4.10;99.90;;;;;;4777384;29;20054;-79
2021/04/09 08:17:59;;;;;;;11.40;7.68;;;4.30;99.90;;;;;;4793473;29;20046;-79
2021/04/09 08:20:35;;;;;;;15.38;7.55;;;4.50;99.90;;;;;;4792480;29;20062;-79
2021/04/09 08:26:04;;;;;;;9.25;6.32;;;5.00;99.90;;;;;;5442376;24;20059;-77
2021/04/09 08:28:36;;;;;;;10.48;5.50;;;5.20;99.90;;;;;;4778037;29;20046;-77
2021/04/09 08:31:03;;;;;;;13.27;5.57;;;5.40;99.90;;;;;;4777289;29;20103;-77
2021/04/09 08:33:34;;;;;;;9.48;4.47;;;5.60;99.90;;;;;;4792400;29;20050;-77
2021/04/09 08:36:34;;;;;;;7.90;5.35;;;5.90;99.90;;;;;;4792051;29;20043;-77
2021/04/09 08:39:10;;;;;;;6.93;3.33;;;6.00;99.90;;;;;;4777698;29;20047;-78
2021/04/09 08:50:29;;;;;;;3.90;2.17;;;7.60;86.50;;;;;;5577503;24;20143;-78
2021/04/09 08:56:35;;;;;;;4.00;1.92;;;8.70;62.90;;;;;;4861639;24;20054;-81
2021/04/09 08:59:03;;;;;;;2.80;1.67;;;9.20;57.80;;;;;;4774121;30;20066;-79
2021/04/09 09:01:30;;;;;;;3.65;1.60;;;9.40;55.30;;;;;;4777248;29;20134;-79
2021/04/09 09:04:22;;;;;;;2.25;1.63;;;9.70;51.60;;;;;;4791952;29;20092;-80
2021/04/09 09:06:49;;;;;;;2.55;1.85;;;9.90;51.30;;;;;;4806311;29;20069;-80
2021/04/09 09:09:36;;;;;;;3.80;1.90;;;10.20;50.70;;;;;;4795777;29;20054;-79
2021/04/09 09:12:18;;;;;;;4.68;1.85;;;10.30;49.70;;;;;;4797018;29;20537;-79
2021/04/09 09:14:48;;;;;;;4.38;1.70;;;10.50;50.90;;;;;;4810431;29;20074;-79
2021/04/09 09:17:25;;;;;;;2.95;1.50;;;10.60;47.30;;;;;;4797218;29;20137;-79
2021/04/09 09:20:14;;;;;;;7.35;2.13;;;10.80;45.40;;;;;;4811581;29;20050;-80
2021/04/09 09:22:50;;;;;;;2.42;1.80;;;10.90;45.20;;;;;;4796592;29;20058;-79
2021/04/09 09:25:41;;;;;;;4.68;1.88;;;11.00;46.60;;;;;;4795896;29;20145;-80
2021/04/09 09:28:17;;;;;;;3.83;2.22;;;11.00;46.70;;;;;;4798969;29;20069;-79
2021/04/09 09:30:54;;;;;;;2.35;1.77;;;11.30;45.80;;;;;;4779149;29;20046;-80
2021/04/09 09:33:29;;;;;;;4.53;2.15;;;11.40;46.70;;;;;;4783338;29;20142;-80
2021/04/09 09:36:04;;;;;;;3.72;2.42;;;11.60;47.00;;;;;;4782646;29;20526;-79
2021/04/09 09:38:50;;;;;;;3.63;1.90;;;11.80;45.80;;;;;;4779912;29;20055;-80
2021/04/09 09:41:57;;;;;;;5.38;2.22;;;12.00;45.70;;;;;;4794942;29;20137;-80
2021/04/09 09:44:28;;;;;;;2.90;2.38;;;12.20;44.60;;;;;;4705430;30;20622;-79
2021/04/09 09:47:06;;;;;;;5.95;2.63;;;12.30;44.70;;;;;;4768280;29;20057;-79
2021/04/09 09:49:36;;;;;;;3.15;1.75;;;12.30;42.40;;;;;;4782856;29;20047;-80
2021/04/09 09:55:10;;;;;;;3.63;1.77;;;12.30;43.30;;;;;;5462013;24;20131;-80
2021/04/09 09:57:43;;;;;;;6.13;1.80;;;12.50;41.90;;;;;;4792566;29;20057;-80
2021/04/09 10:00:26;;;;;;;3.28;1.92;;;12.90;43.90;;;;;;4802419;29;20058;-80
2021/04/09 10:03:14;;;;;;;6.53;1.90;;;13.10;43.10;;;;;;4788204;29;20059;-80
2021/04/09 10:05:45;;;;;;;3.95;1.70;;;13.40;42.50;;;;;;4794107;30;20093;-79
2021/04/09 10:08:14;;;;;;;3.78;1.70;;;13.60;41.80;;;;;;4776165;30;20051;-78
2021/04/09 10:10:50;;;;;;;3.00;2.10;;;13.80;39.10;;;;;;4789788;30;20055;-79
2021/04/09 10:13:26;;;;;;;2.83;1.95;;;13.90;40.00;;;;;;4789891;29;20420;-79
2021/04/09 10:16:04;;;;;;;3.08;1.95;;;13.90;39.20;;;;;;4774042;30;20541;-79
2021/04/09 10:18:31;;;;;;;4.50;2.17;;;14.00;39.20;;;;;;4776069;30;20051;-78
2021/04/09 10:21:19;;;;;;;2.72;2.10;;;14.10;39.20;;;;;;4787605;29;20051;-78
2021/04/09 10:23:48;;;;;;;3.08;1.95;;;14.20;40.10;;;;;;4742256;30;20065;-78
2021/04/09 10:26:17;;;;;;;3.88;1.90;;;14.30;39.10;;;;;;4755161;30;20432;-79
2021/04/09 10:28:46;;;;;;;2.97;2.08;;;14.40;36.90;;;;;;4755593;30;20458;-79
2021/04/09 10:31:20;;;;;;;5.82;1.88;;;14.40;38.10;;;;;;4770081;30;20062;-79
2021/04/09 10:33:52;;;;;;;3.00;1.73;;;14.40;36.00;;;;;;4755803;30;20577;-79
2021/04/09 10:36:29;;;;;;;2.55;1.65;;;14.50;34.40;;;;;;4755883;30;20052;-78
2021/04/09 10:39:01;;;;;;;3.78;2.00;;;14.70;38.20;;;;;;4755959;30;20090;-78
2021/04/09 10:44:31;;;;;;;3.80;1.77;;;14.50;34.90;;;;;;4806403;24;20118;-78
2021/04/09 10:47:04;;;;;;;2.75;1.80;;;14.30;35.60;;;;;;4791145;29;20532;-78
2021/04/09 10:49:45;;;;;;;2.05;1.45;;;14.30;34.90;;;;;;4776835;29;20057;-79
2021/04/09 10:52:14;;;;;;;2.20;1.50;;;14.30;34.50;;;;;;4792050;29;20491;-79
2021/04/09 10:54:51;;;;;;;5.32;2.05;;;14.50;37.40;;;;;;4779632;29;20051;-78
2021/04/09 10:57:25;;;;;;;;;;;14.80;36.20;;;;;;4791302;29;20487;-78
2021/04/09 10:59:55;;;;;;;3.22;1.92;;;14.90;34.70;;;;;;4790922;29;19964;-78
2021/04/09 11:02:34;;;;;;;3.55;1.90;;;14.80;35.50;;;;;;4792564;29;20051;-79
2021/04/09 11:05:01;;;;;;;2.85;1.63;;;14.70;35.10;;;;;;4790349;29;20061;-78
2021/04/09 11:07:51;;;;;;;2.13;1.80;;;14.70;33.50;;;;;;4785852;29;20066;-78
2021/04/09 11:10:37;;;;;;;2.17;1.92;;;14.70;35.70;;;;;;4776686;29;20074;-78
2021/04/09 11:13:10;;;;;;;2.83;1.90;;;14.70;34.10;;;;;;4778428;29;20047;-79
2021/04/09 11:15:41;;;;;;;2.25;1.65;;;14.80;34.00;;;;;;4808479;29;20057;-78
2021/04/09 11:18:08;;;;;;;3.40;1.80;;;14.80;34.80;;;;;;4795794;29;20051;-80
2021/04/09 11:20:42;;;;;;;3.72;1.55;;;14.80;34.70;;;;;;4795032;29;20054;-80
2021/04/09 11:26:19;;;;;;;2.83;1.98;;;15.10;34.30;;;;;;5464900;24;20055;-80
2021/04/09 11:28:52;;;;;;;5.72;1.70;;;15.10;32.90;;;;;;4771358;30;20132;-80
2021/04/09 11:34:16;;;;;;;3.10;1.88;;;15.30;33.10;;;;;;4835822;24;20423;-80
2021/04/09 11:36:49;;;;;;;3.75;1.70;;;15.30;32.80;;;;;;4787587;29;20126;-80
2021/04/09 11:39:21;;;;;;;2.78;1.73;;;15.20;32.60;;;;;;4771696;30;20058;-80
2021/04/09 11:44:38;;;;;;;3.60;1.80;;;15.30;33.90;;;;;;5168056;24;20126;-79
2021/04/09 11:47:14;;;;;;;3.17;1.60;;;15.40;32.10;;;;;;4775199;29;20519;-80
2021/04/09 11:50:07;;;;;;;5.93;2.20;;;15.40;32.00;;;;;;4789519;29;20046;-81
2021/04/09 11:52:58;;;;;;;3.38;1.73;;;15.40;30.30;;;;;;5505115;24;21012;-78
2021/04/09 11:55:33;;;;;;;2.55;1.50;;;15.50;32.40;;;;;;4784839;29;20582;-81
2021/04/09 11:58:22;;;;;;;2.03;1.60;;;15.60;31.60;;;;;;4789958;29;20055;-81
2021/04/09 12:00:59;;;;;;;3.33;1.90;;;15.80;33.00;;;;;;4780256;29;20127;-82
2021/04/09 12:03:56;;;;;;;2.92;1.80;;;15.90;31.90;;;;;;4786153;30;20051;-81
2021/04/09 12:06:36;;;;;;;2.35;1.60;;;15.80;30.00;;;;;;4766009;30;20156;-81
2021/04/09 12:09:07;;;;;;;2.28;1.48;;;15.70;30.10;;;;;;4775143;30;20047;-81
2021/04/09 12:11:34;;;;;;;3.90;1.50;;;15.70;31.10;;;;;;4780501;29;20082;-81
2021/04/09 12:14:05;;;;;;;5.10;1.90;;;15.70;31.70;;;;;;4777081;30;20047;-81
2021/04/09 12:16:36;;;;;;;2.30;1.55;;;15.80;30.80;;;;;;4778253;29;20110;-79
2021/04/09 12:19:07;;;;;;;3.97;1.52;;;16.00;31.80;;;;;;4777173;30;20075;-78
2021/04/09 12:21:39;;;;;;;4.30;1.52;;;16.00;31.20;;;;;;4784272;29;20055;-79
2021/04/09 12:24:10;;;;;;;2.78;1.50;;;16.00;30.60;;;;;;4767813;30;20094;-82
2021/04/09 12:26:42;;;;;;;3.25;1.60;;;15.90;30.90;;;;;;4783131;29;20075;-81
2021/04/09 12:29:13;;;;;;;4.35;1.50;;;15.80;31.50;;;;;;4782397;30;20104;-81
2021/04/09 12:31:40;;;;;;;3.80;1.65;;;15.90;30.60;;;;;;4771812;30;20059;-78
2021/04/09 12:34:11;;;;;;;1.95;1.50;;;16.00;31.50;;;;;;4755229;30;20044;-82
2021/04/09 12:36:38;;;;;;;4.75;1.60;;;16.20;30.00;;;;;;4768759;30;20138;-82
2021/04/09 12:39:10;;;;;;;4.07;2.15;;;16.20;30.80;;;;;;4786730;30;20075;-81
2021/04/09 12:41:42;;;;;;;3.60;1.73;;;16.10;30.00;;;;;;4789499;29;20043;-81
2021/04/09 12:44:10;;;;;;;2.75;1.58;;;16.20;32.70;;;;;;4789636;29;20074;-82
2021/04/09 12:46:49;;;;;;;2.33;1.48;;;16.20;30.60;;;;;;4775297;30;20428;-80
2021/04/09 12:49:18;;;;;;;3.20;1.48;;;16.20;31.90;;;;;;4789546;30;20511;-80
2021/04/09 13:09:43;;;;;;;3.33;1.50;;;16.20;32.40;;;;;;4772036;30;20058;-81
2021/04/09 13:15:06;;;;;;;3.38;1.25;;;16.20;29.50;;;;;;5159445;24;20087;-81
2021/04/09 13:17:38;;;;;;;2.08;1.50;;;16.30;29.30;;;;;;4759756;30;20055;-82
2021/04/09 13:20:10;;;;;;;3.95;2.08;;;16.30;29.50;;;;;;4773808;30;20055;-81
2021/04/09 13:28:27;;;;;;;3.35;1.30;;;16.20;29.30;;;;;;5437570;24;20050;-81
2021/04/09 13:30:59;;;;;;;2.73;1.70;;;16.00;27.40;;;;;;4759488;29;20047;-82
2021/04/09 13:33:33;;;;;;;4.03;1.83;;;16.00;28.30;;;;;;4760107;30;20055;-79
2021/04/09 13:36:07;;;;;;;2.50;1.48;;;15.90;28.20;;;;;;4759799;30;20051;-81
2021/04/09 13:42:31;;;;;;;3.13;1.50;;;15.90;28.80;;;;;;4789853;29;20088;-81
2021/04/09 13:44:58;;;;;;;4.15;1.38;;;16.00;27.40;;;;;;4773708;30;20096;-81
2021/04/09 13:47:24;;;;;;;5.68;1.40;;;15.80;27.20;;;;;;4773413;30;20091;-81
2021/04/09 13:49:59;;;;;;;3.35;1.40;;;15.90;28.20;;;;;;4759314;30;20048;-81
2021/04/09 14:08:19;;;;;;;3.10;1.70;;;16.00;30.20;;;;;;5448452;24;20047;-79
2021/04/09 14:45:35;;;;;;;5.72;2.42;;;15.10;30.00;;;;;;5267906;24;20415;-80
2021/04/09 14:48:06;;;;;;;2.75;1.40;;;15.00;29.70;;;;;;4776618;29;20075;-81
2021/04/09 14:50:38;;;;;;;4.90;2.38;;;14.80;30.50;;;;;;4757154;30;20047;-80
2021/04/09 14:55:59;;;;;;;5.20;1.83;;;14.80;30.50;;;;;;5374494;24;20526;-80
2021/04/09 14:58:30;;;;;;;3.45;1.90;;;14.90;31.30;;;;;;4780211;29;20051;-81
2021/04/09 15:03:53;;;;;;;3.38;2.30;;;14.90;32.80;;;;;;5014862;24;20082;-81
2021/04/09 15:06:25;;;;;;;6.00;2.25;;;14.90;32.20;;;;;;4757406;30;20063;-79
2021/04/09 15:08:57;;;;;;;3.55;1.85;;;15.00;31.70;;;;;;4757309;29;20138;-81
2021/04/09 15:11:29;;;;;;;4.20;1.92;;;15.40;32.20;;;;;;4771304;30;20059;-81